sensor_id;sensor_type;location;lat;lon;timestamp;temperature;humidity
13375;DHT22;6756;51.354;15.754;2024-02-16T00:00:47;4.70;99.90
13375;DHT22;6756;51.354;15.754;2024-02-16T00:04:48;4.60;99.90
13375;DHT22;6756;51.354;15.754;2024-02-16T00:08:49;4.50;99.90
13375;DHT22;6756;51.354;15.754;2024-02-16T00:12:50;4.30;99.90
13375;DHT22;6756;51.354;15.754;2024-02-16T00:16:51;4.20;99.90
13375;DHT22;6756;51.354;15.754;2024-02-16T00:20:52;4.10;99.90
13375;DHT22;6756;51.354;15.754;2024-02-16T00:24:53;4.10;99.90
13375;DHT22;6756;51.354;15.754;2024-02-16T00:28:53;4.10;99.90
13375;DHT22;6756;51.354;15.754;2024-02-16T00:32:55;4.00;99.90
13375;DHT22;6756;51.354;15.754;2024-02-16T00:36:56;3.90;99.90
13375;DHT22;6756;51.354;15.754;2024-02-16T00:40:57;3.90;99.90
13375;DHT22;6756;51.354;15.754;2024-02-16T00:44:57;3.70;99.90
13375;DHT22;6756;51.354;15.754;2024-02-16T00:49:00;3.70;99.90
13375;DHT22;6756;51.354;15.754;2024-02-16T00:53:02;3.60;99.90
13375;DHT22;6756;51.354;15.754;2024-02-16T00:57:03;3.50;99.90
13375;DHT22;6756;51.354;15.754;2024-02-16T01:01:05;3.50;99.90
13375;DHT22;6756;51.354;15.754;2024-02-16T01:05:08;3.40;99.90
13375;DHT22;6756;51.354;15.754;2024-02-16T01:09:10;3.50;99.90
13375;DHT22;6756;51.354;15.754;2024-02-16T01:13:13;3.50;99.90
13375;DHT22;6756;51.354;15.754;2024-02-16T01:17:14;3.50;99.90
13375;DHT22;6756;51.354;15.754;2024-02-16T01:21:15;3.40;99.90
13375;DHT22;6756;51.354;15.754;2024-02-16T01:25:17;3.40;99.90
13375;DHT22;6756;51.354;15.754;2024-02-16T01:29:18;3.30;99.90
13375;DHT22;6756;51.354;15.754;2024-02-16T01:33:19;3.30;99.90
13375;DHT22;6756;51.354;15.754;2024-02-16T01:37:20;3.20;99.90
13375;DHT22;6756;51.354;15.754;2024-02-16T01:41:20;3.10;99.90
13375;DHT22;6756;51.354;15.754;2024-02-16T01:45:21;3.00;99.90
13375;DHT22;6756;51.354;15.754;2024-02-16T01:49:22;3.00;99.90
13375;DHT22;6756;51.354;15.754;2024-02-16T01:53:23;3.00;99.90
13375;DHT22;6756;51.354;15.754;2024-02-16T01:57:24;3.00;99.90
13375;DHT22;6756;51.354;15.754;2024-02-16T02:01:25;2.90;99.90
13375;DHT22;6756;51.354;15.754;2024-02-16T02:05:26;2.90;99.90
13375;DHT22;6756;51.354;15.754;2024-02-16T02:09:27;2.80;99.90
13375;DHT22;6756;51.354;15.754;2024-02-16T02:13:28;2.80;99.90
13375;DHT22;6756;51.354;15.754;2024-02-16T02:17:29;2.70;99.90
13375;DHT22;6756;51.354;15.754;2024-02-16T02:21:30;2.60;99.90
13375;DHT22;6756;51.354;15.754;2024-02-16T02:25:31;2.50;99.90
13375;DHT22;6756;51.354;15.754;2024-02-16T02:29:32;2.40;99.90
13375;DHT22;6756;51.354;15.754;2024-02-16T02:33:33;2.40;99.90
13375;DHT22;6756;51.354;15.754;2024-02-16T02:37:34;2.40;99.90
13375;DHT22;6756;51.354;15.754;2024-02-16T02:41:35;2.30;99.90
13375;DHT22;6756;51.354;15.754;2024-02-16T02:45:36;2.20;99.90
13375;DHT22;6756;51.354;15.754;2024-02-16T02:49:37;2.20;99.90
13375;DHT22;6756;51.354;15.754;2024-02-16T02:53:38;2.10;99.90
13375;DHT22;6756;51.354;15.754;2024-02-16T02:57:38;2.10;99.90
13375;DHT22;6756;51.354;15.754;2024-02-16T03:01:39;2.10;99.90
13375;DHT22;6756;51.354;15.754;2024-02-16T03:05:42;2.00;99.90
13375;DHT22;6756;51.354;15.754;2024-02-16T03:09:43;1.90;99.90
13375;DHT22;6756;51.354;15.754;2024-02-16T03:13:44;1.80;99.90
13375;DHT22;6756;51.354;15.754;2024-02-16T03:17:44;1.80;99.90
13375;DHT22;6756;51.354;15.754;2024-02-16T03:21:47;1.70;99.90
13375;DHT22;6756;51.354;15.754;2024-02-16T03:25:47;1.70;99.90
13375;DHT22;6756;51.354;15.754;2024-02-16T03:29:48;1.70;99.90
13375;DHT22;6756;51.354;15.754;2024-02-16T03:33:50;1.70;99.90
13375;DHT22;6756;51.354;15.754;2024-02-16T03:37:51;1.60;99.90
13375;DHT22;6756;51.354;15.754;2024-02-16T03:41:52;1.60;99.90
13375;DHT22;6756;51.354;15.754;2024-02-16T03:45:53;1.50;99.90
13375;DHT22;6756;51.354;15.754;2024-02-16T03:49:54;1.50;99.90
13375;DHT22;6756;51.354;15.754;2024-02-16T03:53:55;1.40;99.90
13375;DHT22;6756;51.354;15.754;2024-02-16T03:57:56;1.40;99.90
13375;DHT22;6756;51.354;15.754;2024-02-16T04:01:57;1.40;99.90
13375;DHT22;6756;51.354;15.754;2024-02-16T04:05:57;1.40;99.90
13375;DHT22;6756;51.354;15.754;2024-02-16T04:10:01;1.40;99.90
13375;DHT22;6756;51.354;15.754;2024-02-16T04:14:02;1.40;99.90
13375;DHT22;6756;51.354;15.754;2024-02-16T04:18:03;1.40;99.90
13375;DHT22;6756;51.354;15.754;2024-02-16T04:22:04;1.40;99.90
13375;DHT22;6756;51.354;15.754;2024-02-16T04:26:04;1.40;99.90
13375;DHT22;6756;51.354;15.754;2024-02-16T04:30:07;1.40;99.90
13375;DHT22;6756;51.354;15.754;2024-02-16T04:34:08;1.40;99.90
13375;DHT22;6756;51.354;15.754;2024-02-16T04:38:09;1.40;99.90
13375;DHT22;6756;51.354;15.754;2024-02-16T04:42:11;1.50;99.90
13375;DHT22;6756;51.354;15.754;2024-02-16T04:46:15;1.50;99.90
13375;DHT22;6756;51.354;15.754;2024-02-16T04:50:16;1.50;99.90
13375;DHT22;6756;51.354;15.754;2024-02-16T04:54:17;1.50;99.90
13375;DHT22;6756;51.354;15.754;2024-02-16T04:58:17;1.50;99.90
13375;DHT22;6756;51.354;15.754;2024-02-16T05:02:18;1.60;99.90
13375;DHT22;6756;51.354;15.754;2024-02-16T05:06:19;1.60;99.90
13375;DHT22;6756;51.354;15.754;2024-02-16T05:10:20;1.60;99.90
13375;DHT22;6756;51.354;15.754;2024-02-16T05:14:20;1.50;99.90
13375;DHT22;6756;51.354;15.754;2024-02-16T05:18:22;1.50;99.90
13375;DHT22;6756;51.354;15.754;2024-02-16T05:22:23;1.50;99.90
13375;DHT22;6756;51.354;15.754;2024-02-16T05:26:24;1.50;99.90
13375;DHT22;6756;51.354;15.754;2024-02-16T05:30:25;1.60;99.90
13375;DHT22;6756;51.354;15.754;2024-02-16T05:34:25;1.60;99.90
13375;DHT22;6756;51.354;15.754;2024-02-16T05:38:26;1.60;99.90
13375;DHT22;6756;51.354;15.754;2024-02-16T05:42:35;1.60;99.90
13375;DHT22;6756;51.354;15.754;2024-02-16T05:46:36;1.60;99.90
13375;DHT22;6756;51.354;15.754;2024-02-16T05:50:38;1.60;99.90
13375;DHT22;6756;51.354;15.754;2024-02-16T05:54:40;1.70;99.90
13375;DHT22;6756;51.354;15.754;2024-02-16T05:58:41;1.70;99.90
13375;DHT22;6756;51.354;15.754;2024-02-16T06:02:42;1.70;99.90
13375;DHT22;6756;51.354;15.754;2024-02-16T06:06:43;1.70;99.90
13375;DHT22;6756;51.354;15.754;2024-02-16T06:10:43;1.60;99.90
13375;DHT22;6756;51.354;15.754;2024-02-16T06:14:44;1.60;99.90
13375;DHT22;6756;51.354;15.754;2024-02-16T06:18:45;1.60;99.90
13375;DHT22;6756;51.354;15.754;2024-02-16T06:22:46;1.60;99.90
13375;DHT22;6756;51.354;15.754;2024-02-16T06:26:48;1.60;99.90
13375;DHT22;6756;51.354;15.754;2024-02-16T06:30:49;1.80;99.90
13375;DHT22;6756;51.354;15.754;2024-02-16T06:34:50;1.90;99.90
13375;DHT22;6756;51.354;15.754;2024-02-16T06:38:50;2.10;99.90
13375;DHT22;6756;51.354;15.754;2024-02-16T06:42:52;2.30;99.90
13375;DHT22;6756;51.354;15.754;2024-02-16T06:46:53;2.40;99.90
13375;DHT22;6756;51.354;15.754;2024-02-16T06:50:54;2.60;99.90
13375;DHT22;6756;51.354;15.754;2024-02-16T06:54:55;2.80;99.90
13375;DHT22;6756;51.354;15.754;2024-02-16T06:58:56;2.90;99.90
13375;DHT22;6756;51.354;15.754;2024-02-16T07:02:56;3.00;99.90
13375;DHT22;6756;51.354;15.754;2024-02-16T07:06:57;3.00;99.90
13375;DHT22;6756;51.354;15.754;2024-02-16T07:10:58;3.10;99.90
13375;DHT22;6756;51.354;15.754;2024-02-16T07:14:59;3.10;99.90
13375;DHT22;6756;51.354;15.754;2024-02-16T07:18:59;3.10;99.90
13375;DHT22;6756;51.354;15.754;2024-02-16T07:23:00;3.20;99.90
13375;DHT22;6756;51.354;15.754;2024-02-16T07:27:01;3.30;99.90
13375;DHT22;6756;51.354;15.754;2024-02-16T07:31:02;3.50;99.90
13375;DHT22;6756;51.354;15.754;2024-02-16T07:35:03;3.70;99.90
13375;DHT22;6756;51.354;15.754;2024-02-16T07:39:04;4.00;99.90
13375;DHT22;6756;51.354;15.754;2024-02-16T07:43:05;4.20;99.90
13375;DHT22;6756;51.354;15.754;2024-02-16T07:47:06;4.40;99.90
13375;DHT22;6756;51.354;15.754;2024-02-16T07:51:07;4.60;99.90
13375;DHT22;6756;51.354;15.754;2024-02-16T07:55:08;4.70;99.90
13375;DHT22;6756;51.354;15.754;2024-02-16T07:59:09;4.80;99.90
13375;DHT22;6756;51.354;15.754;2024-02-16T08:03:10;4.90;99.90
13375;DHT22;6756;51.354;15.754;2024-02-16T08:07:11;5.00;99.90
13375;DHT22;6756;51.354;15.754;2024-02-16T08:11:11;5.00;99.90
13375;DHT22;6756;51.354;15.754;2024-02-16T08:15:12;5.10;99.90
13375;DHT22;6756;51.354;15.754;2024-02-16T08:19:13;5.10;99.90
13375;DHT22;6756;51.354;15.754;2024-02-16T08:23:14;5.20;99.90
13375;DHT22;6756;51.354;15.754;2024-02-16T08:27:16;5.40;99.90
13375;DHT22;6756;51.354;15.754;2024-02-16T08:31:17;5.60;99.90
13375;DHT22;6756;51.354;15.754;2024-02-16T08:35:18;5.80;99.90
13375;DHT22;6756;51.354;15.754;2024-02-16T08:39:20;6.00;99.90
13375;DHT22;6756;51.354;15.754;2024-02-16T08:43:21;6.30;99.90
13375;DHT22;6756;51.354;15.754;2024-02-16T08:47:21;6.60;99.90
13375;DHT22;6756;51.354;15.754;2024-02-16T08:51:22;7.10;99.90
13375;DHT22;6756;51.354;15.754;2024-02-16T08:55:23;7.40;99.90
13375;DHT22;6756;51.354;15.754;2024-02-16T08:59:24;7.70;99.90
13375;DHT22;6756;51.354;15.754;2024-02-16T09:03:25;8.10;99.90
13375;DHT22;6756;51.354;15.754;2024-02-16T09:07:26;8.50;99.90
13375;DHT22;6756;51.354;15.754;2024-02-16T09:11:27;8.80;99.90
13375;DHT22;6756;51.354;15.754;2024-02-16T09:15:31;9.30;99.90
13375;DHT22;6756;51.354;15.754;2024-02-16T09:19:31;9.70;99.90
13375;DHT22;6756;51.354;15.754;2024-02-16T09:23:33;10.10;99.90
13375;DHT22;6756;51.354;15.754;2024-02-16T09:27:34;10.50;99.90
13375;DHT22;6756;51.354;15.754;2024-02-16T09:31:35;10.80;99.90
13375;DHT22;6756;51.354;15.754;2024-02-16T09:35:35;11.10;99.90
13375;DHT22;6756;51.354;15.754;2024-02-16T09:39:36;11.50;99.90
13375;DHT22;6756;51.354;15.754;2024-02-16T09:43:37;11.70;1.00
13375;DHT22;6756;51.354;15.754;2024-02-16T09:47:44;11.80;99.90
13375;DHT22;6756;51.354;15.754;2024-02-16T09:51:45;11.80;99.90
13375;DHT22;6756;51.354;15.754;2024-02-16T09:55:46;11.80;99.90
13375;DHT22;6756;51.354;15.754;2024-02-16T09:59:47;11.90;99.90
13375;DHT22;6756;51.354;15.754;2024-02-16T10:03:49;11.90;99.90
13375;DHT22;6756;51.354;15.754;2024-02-16T10:07:50;11.90;99.90
13375;DHT22;6756;51.354;15.754;2024-02-16T10:11:51;11.90;99.90
13375;DHT22;6756;51.354;15.754;2024-02-16T10:15:52;11.90;99.90
13375;DHT22;6756;51.354;15.754;2024-02-16T10:19:57;12.00;99.90
13375;DHT22;6756;51.354;15.754;2024-02-16T10:24:07;12.20;98.50
13375;DHT22;6756;51.354;15.754;2024-02-16T10:28:10;12.50;68.20
13375;DHT22;6756;51.354;15.754;2024-02-16T10:32:14;13.00;10.70
13375;DHT22;6756;51.354;15.754;2024-02-16T10:36:15;13.40;1.00
13375;DHT22;6756;51.354;15.754;2024-02-16T10:40:20;13.90;1.00
13375;DHT22;6756;51.354;15.754;2024-02-16T10:44:21;14.30;1.00
13375;DHT22;6756;51.354;15.754;2024-02-16T10:48:22;14.70;1.00
13375;DHT22;6756;51.354;15.754;2024-02-16T10:52:22;14.90;1.00
13375;DHT22;6756;51.354;15.754;2024-02-16T10:56:33;15.10;1.00
13375;DHT22;6756;51.354;15.754;2024-02-16T11:00:34;15.30;1.00
13375;DHT22;6756;51.354;15.754;2024-02-16T11:04:39;15.80;1.00
13375;DHT22;6756;51.354;15.754;2024-02-16T11:08:40;16.30;1.00
13375;DHT22;6756;51.354;15.754;2024-02-16T11:12:44;16.80;1.00
13375;DHT22;6756;51.354;15.754;2024-02-16T11:16:48;17.00;1.00
13375;DHT22;6756;51.354;15.754;2024-02-16T11:20:49;16.90;1.00
13375;DHT22;6756;51.354;15.754;2024-02-16T11:24:53;16.80;1.00
13375;DHT22;6756;51.354;15.754;2024-02-16T11:28:54;16.50;1.00
13375;DHT22;6756;51.354;15.754;2024-02-16T11:32:55;16.50;1.00
13375;DHT22;6756;51.354;15.754;2024-02-16T11:36:57;16.40;1.00
13375;DHT22;6756;51.354;15.754;2024-02-16T11:41:02;16.40;1.00
13375;DHT22;6756;51.354;15.754;2024-02-16T11:45:04;16.60;1.00
13375;DHT22;6756;51.354;15.754;2024-02-16T11:49:07;16.80;1.00
13375;DHT22;6756;51.354;15.754;2024-02-16T11:53:08;17.00;1.00
13375;DHT22;6756;51.354;15.754;2024-02-16T11:57:09;17.10;1.00
13375;DHT22;6756;51.354;15.754;2024-02-16T12:01:11;17.20;1.00
13375;DHT22;6756;51.354;15.754;2024-02-16T12:05:14;17.20;1.00
13375;DHT22;6756;51.354;15.754;2024-02-16T12:09:16;17.30;1.00
13375;DHT22;6756;51.354;15.754;2024-02-16T12:13:20;17.40;1.00
13375;DHT22;6756;51.354;15.754;2024-02-16T12:17:21;17.40;1.00
13375;DHT22;6756;51.354;15.754;2024-02-16T12:21:22;17.40;1.00
13375;DHT22;6756;51.354;15.754;2024-02-16T12:25:22;17.40;1.00
13375;DHT22;6756;51.354;15.754;2024-02-16T12:29:23;17.50;1.00
13375;DHT22;6756;51.354;15.754;2024-02-16T12:33:24;17.40;1.00
13375;DHT22;6756;51.354;15.754;2024-02-16T12:37:25;17.40;1.00
13375;DHT22;6756;51.354;15.754;2024-02-16T12:41:26;17.40;1.00
13375;DHT22;6756;51.354;15.754;2024-02-16T12:45:27;17.30;1.00
13375;DHT22;6756;51.354;15.754;2024-02-16T12:49:28;17.30;1.00
13375;DHT22;6756;51.354;15.754;2024-02-16T12:53:29;17.10;1.00
13375;DHT22;6756;51.354;15.754;2024-02-16T12:57:36;17.10;1.00
13375;DHT22;6756;51.354;15.754;2024-02-16T13:01:38;17.20;1.00
13375;DHT22;6756;51.354;15.754;2024-02-16T13:05:39;17.40;1.00
13375;DHT22;6756;51.354;15.754;2024-02-16T13:09:39;17.60;1.00
13375;DHT22;6756;51.354;15.754;2024-02-16T13:13:41;17.50;1.00
13375;DHT22;6756;51.354;15.754;2024-02-16T13:17:42;17.30;1.00
13375;DHT22;6756;51.354;15.754;2024-02-16T13:21:44;17.00;1.00
13375;DHT22;6756;51.354;15.754;2024-02-16T13:25:45;16.60;1.00
13375;DHT22;6756;51.354;15.754;2024-02-16T13:29:46;16.40;1.00
13375;DHT22;6756;51.354;15.754;2024-02-16T13:33:46;16.20;1.00
13375;DHT22;6756;51.354;15.754;2024-02-16T13:37:48;16.00;1.00
13375;DHT22;6756;51.354;15.754;2024-02-16T13:41:49;15.90;1.00
13375;DHT22;6756;51.354;15.754;2024-02-16T13:45:53;15.80;1.00
13375;DHT22;6756;51.354;15.754;2024-02-16T13:49:54;15.80;1.00
13375;DHT22;6756;51.354;15.754;2024-02-16T13:53:57;15.80;1.00
13375;DHT22;6756;51.354;15.754;2024-02-16T13:57:58;15.90;1.00
13375;DHT22;6756;51.354;15.754;2024-02-16T14:02:00;16.00;1.00
13375;DHT22;6756;51.354;15.754;2024-02-16T14:06:01;15.90;1.00
13375;DHT22;6756;51.354;15.754;2024-02-16T14:10:03;16.10;1.00
13375;DHT22;6756;51.354;15.754;2024-02-16T14:14:04;16.40;1.00
13375;DHT22;6756;51.354;15.754;2024-02-16T14:18:05;16.60;1.00
13375;DHT22;6756;51.354;15.754;2024-02-16T14:22:07;16.80;1.00
13375;DHT22;6756;51.354;15.754;2024-02-16T14:26:09;16.90;1.00
13375;DHT22;6756;51.354;15.754;2024-02-16T14:30:11;16.90;1.00
13375;DHT22;6756;51.354;15.754;2024-02-16T14:34:12;16.80;1.00
13375;DHT22;6756;51.354;15.754;2024-02-16T14:38:13;16.70;1.00
13375;DHT22;6756;51.354;15.754;2024-02-16T14:42:14;16.60;1.00
13375;DHT22;6756;51.354;15.754;2024-02-16T14:46:15;16.40;1.00
13375;DHT22;6756;51.354;15.754;2024-02-16T14:50:17;16.10;1.00
13375;DHT22;6756;51.354;15.754;2024-02-16T14:54:17;16.00;1.00
13375;DHT22;6756;51.354;15.754;2024-02-16T14:58:18;15.80;1.00
13375;DHT22;6756;51.354;15.754;2024-02-16T15:02:20;15.70;1.00
13375;DHT22;6756;51.354;15.754;2024-02-16T15:06:22;15.70;1.00
13375;DHT22;6756;51.354;15.754;2024-02-16T15:10:23;15.60;1.00
13375;DHT22;6756;51.354;15.754;2024-02-16T15:14:27;15.50;1.00
13375;DHT22;6756;51.354;15.754;2024-02-16T15:18:28;15.40;1.00
13375;DHT22;6756;51.354;15.754;2024-02-16T15:22:29;15.20;1.00
13375;DHT22;6756;51.354;15.754;2024-02-16T15:26:29;15.00;1.00
13375;DHT22;6756;51.354;15.754;2024-02-16T15:30:30;14.80;1.00
13375;DHT22;6756;51.354;15.754;2024-02-16T15:34:31;14.60;1.00
13375;DHT22;6756;51.354;15.754;2024-02-16T15:38:32;14.50;1.00
13375;DHT22;6756;51.354;15.754;2024-02-16T15:42:34;14.30;1.00
13375;DHT22;6756;51.354;15.754;2024-02-16T15:46:35;14.20;1.00
13375;DHT22;6756;51.354;15.754;2024-02-16T15:50:38;14.10;1.00
13375;DHT22;6756;51.354;15.754;2024-02-16T15:54:39;13.90;1.00
13375;DHT22;6756;51.354;15.754;2024-02-16T15:58:41;13.80;1.00
13375;DHT22;6756;51.354;15.754;2024-02-16T16:02:42;13.60;1.00
13375;DHT22;6756;51.354;15.754;2024-02-16T16:06:43;13.50;1.00
13375;DHT22;6756;51.354;15.754;2024-02-16T16:10:45;13.40;1.00
13375;DHT22;6756;51.354;15.754;2024-02-16T16:14:46;13.30;1.00
13375;DHT22;6756;51.354;15.754;2024-02-16T16:18:47;13.10;1.00
13375;DHT22;6756;51.354;15.754;2024-02-16T16:22:48;13.00;1.00
13375;DHT22;6756;51.354;15.754;2024-02-16T16:26:48;12.90;1.00
13375;DHT22;6756;51.354;15.754;2024-02-16T16:30:50;12.80;1.00
13375;DHT22;6756;51.354;15.754;2024-02-16T16:34:51;12.80;1.00
13375;DHT22;6756;51.354;15.754;2024-02-16T16:38:53;12.70;1.00
13375;DHT22;6756;51.354;15.754;2024-02-16T16:42:54;12.60;1.00
13375;DHT22;6756;51.354;15.754;2024-02-16T16:46:55;12.50;1.00
13375;DHT22;6756;51.354;15.754;2024-02-16T16:50:55;12.40;1.00
13375;DHT22;6756;51.354;15.754;2024-02-16T16:54:56;12.40;1.00
13375;DHT22;6756;51.354;15.754;2024-02-16T16:58:58;12.30;1.00
13375;DHT22;6756;51.354;15.754;2024-02-16T17:03:01;12.20;1.00
13375;DHT22;6756;51.354;15.754;2024-02-16T17:07:02;12.10;1.00
13375;DHT22;6756;51.354;15.754;2024-02-16T17:11:04;12.00;1.00
13375;DHT22;6756;51.354;15.754;2024-02-16T17:15:05;11.90;1.00
13375;DHT22;6756;51.354;15.754;2024-02-16T17:19:06;11.80;1.00
13375;DHT22;6756;51.354;15.754;2024-02-16T17:23:07;11.70;1.00
13375;DHT22;6756;51.354;15.754;2024-02-16T17:27:08;11.70;1.00
13375;DHT22;6756;51.354;15.754;2024-02-16T17:31:09;11.50;1.00
13375;DHT22;6756;51.354;15.754;2024-02-16T17:35:10;11.50;1.00
13375;DHT22;6756;51.354;15.754;2024-02-16T17:39:11;11.40;1.00
13375;DHT22;6756;51.354;15.754;2024-02-16T17:43:12;11.30;1.00
13375;DHT22;6756;51.354;15.754;2024-02-16T17:47:13;11.20;1.00
13375;DHT22;6756;51.354;15.754;2024-02-16T17:51:14;11.10;1.00
13375;DHT22;6756;51.354;15.754;2024-02-16T17:55:16;11.00;1.00
13375;DHT22;6756;51.354;15.754;2024-02-16T17:59:17;11.00;1.00
13375;DHT22;6756;51.354;15.754;2024-02-16T18:03:18;10.90;1.00
13375;DHT22;6756;51.354;15.754;2024-02-16T18:07:19;10.90;1.00
13375;DHT22;6756;51.354;15.754;2024-02-16T18:11:19;10.90;1.00
13375;DHT22;6756;51.354;15.754;2024-02-16T18:15:21;10.90;1.00
13375;DHT22;6756;51.354;15.754;2024-02-16T18:19:22;10.90;1.00
13375;DHT22;6756;51.354;15.754;2024-02-16T18:23:23;10.90;1.00
13375;DHT22;6756;51.354;15.754;2024-02-16T18:27:24;10.90;1.00
13375;DHT22;6756;51.354;15.754;2024-02-16T18:31:25;10.90;1.00
13375;DHT22;6756;51.354;15.754;2024-02-16T18:35:26;10.90;1.00
13375;DHT22;6756;51.354;15.754;2024-02-16T18:39:26;10.90;1.00
13375;DHT22;6756;51.354;15.754;2024-02-16T18:43:27;10.90;1.00
13375;DHT22;6756;51.354;15.754;2024-02-16T18:47:28;10.90;1.00
13375;DHT22;6756;51.354;15.754;2024-02-16T18:51:30;10.90;1.00
13375;DHT22;6756;51.354;15.754;2024-02-16T18:55:31;10.90;1.00
13375;DHT22;6756;51.354;15.754;2024-02-16T18:59:32;10.90;1.00
13375;DHT22;6756;51.354;15.754;2024-02-16T19:03:33;10.90;1.00
13375;DHT22;6756;51.354;15.754;2024-02-16T19:07:34;10.90;1.00
13375;DHT22;6756;51.354;15.754;2024-02-16T19:11:35;10.90;1.00
13375;DHT22;6756;51.354;15.754;2024-02-16T19:15:36;10.90;1.00
13375;DHT22;6756;51.354;15.754;2024-02-16T19:19:37;10.90;1.00
13375;DHT22;6756;51.354;15.754;2024-02-16T19:23:38;10.90;1.00
13375;DHT22;6756;51.354;15.754;2024-02-16T19:27:39;10.90;1.00
13375;DHT22;6756;51.354;15.754;2024-02-16T19:31:40;10.90;1.00
13375;DHT22;6756;51.354;15.754;2024-02-16T19:35:41;10.80;1.00
13375;DHT22;6756;51.354;15.754;2024-02-16T19:39:42;10.80;1.00
13375;DHT22;6756;51.354;15.754;2024-02-16T19:43:43;10.80;1.00
13375;DHT22;6756;51.354;15.754;2024-02-16T19:47:43;10.70;1.00
13375;DHT22;6756;51.354;15.754;2024-02-16T19:51:46;10.70;1.00
13375;DHT22;6756;51.354;15.754;2024-02-16T19:55:47;10.60;1.00
13375;DHT22;6756;51.354;15.754;2024-02-16T19:59:47;10.60;1.00
13375;DHT22;6756;51.354;15.754;2024-02-16T20:03:48;10.60;1.00
13375;DHT22;6756;51.354;15.754;2024-02-16T20:07:49;10.70;1.00
13375;DHT22;6756;51.354;15.754;2024-02-16T20:11:50;10.80;1.00
13375;DHT22;6756;51.354;15.754;2024-02-16T20:15:51;10.80;1.00
13375;DHT22;6756;51.354;15.754;2024-02-16T20:19:52;10.80;1.00
13375;DHT22;6756;51.354;15.754;2024-02-16T20:23:54;10.70;1.00
13375;DHT22;6756;51.354;15.754;2024-02-16T20:27:54;10.70;1.00
13375;DHT22;6756;51.354;15.754;2024-02-16T20:31:56;10.60;1.00
13375;DHT22;6756;51.354;15.754;2024-02-16T20:35:57;10.60;1.00
13375;DHT22;6756;51.354;15.754;2024-02-16T20:39:58;10.50;1.00
13375;DHT22;6756;51.354;15.754;2024-02-16T20:43:59;10.50;1.00
13375;DHT22;6756;51.354;15.754;2024-02-16T20:48:00;10.50;1.00
13375;DHT22;6756;51.354;15.754;2024-02-16T20:52:01;10.40;1.00
13375;DHT22;6756;51.354;15.754;2024-02-16T20:56:02;10.40;1.00
13375;DHT22;6756;51.354;15.754;2024-02-16T21:00:03;10.40;1.00
13375;DHT22;6756;51.354;15.754;2024-02-16T21:04:08;10.40;1.00
13375;DHT22;6756;51.354;15.754;2024-02-16T21:08:09;10.40;1.00
13375;DHT22;6756;51.354;15.754;2024-02-16T21:12:11;10.40;1.00
13375;DHT22;6756;51.354;15.754;2024-02-16T21:16:12;10.40;1.00
13375;DHT22;6756;51.354;15.754;2024-02-16T21:20:14;10.40;1.00
13375;DHT22;6756;51.354;15.754;2024-02-16T21:24:15;10.50;1.00
13375;DHT22;6756;51.354;15.754;2024-02-16T21:28:22;10.50;1.00
13375;DHT22;6756;51.354;15.754;2024-02-16T21:32:23;10.60;1.00
13375;DHT22;6756;51.354;15.754;2024-02-16T21:36:24;10.70;1.00
13375;DHT22;6756;51.354;15.754;2024-02-16T21:40:26;10.80;1.00
13375;DHT22;6756;51.354;15.754;2024-02-16T21:44:27;10.90;1.00
13375;DHT22;6756;51.354;15.754;2024-02-16T21:48:28;11.00;1.00
13375;DHT22;6756;51.354;15.754;2024-02-16T21:52:29;11.20;1.00
13375;DHT22;6756;51.354;15.754;2024-02-16T21:56:30;11.30;1.00
13375;DHT22;6756;51.354;15.754;2024-02-16T22:00:31;11.40;1.00
13375;DHT22;6756;51.354;15.754;2024-02-16T22:04:32;11.50;1.00
13375;DHT22;6756;51.354;15.754;2024-02-16T22:08:33;11.50;1.00
13375;DHT22;6756;51.354;15.754;2024-02-16T22:12:34;11.60;1.00
13375;DHT22;6756;51.354;15.754;2024-02-16T22:16:34;11.60;1.00
13375;DHT22;6756;51.354;15.754;2024-02-16T22:20:35;11.60;1.00
13375;DHT22;6756;51.354;15.754;2024-02-16T22:24:36;11.70;1.00
13375;DHT22;6756;51.354;15.754;2024-02-16T22:28:37;11.70;1.00
13375;DHT22;6756;51.354;15.754;2024-02-16T22:32:38;11.70;1.00
13375;DHT22;6756;51.354;15.754;2024-02-16T22:36:38;11.80;1.00
13375;DHT22;6756;51.354;15.754;2024-02-16T22:40:42;11.80;1.00
13375;DHT22;6756;51.354;15.754;2024-02-16T22:44:43;11.90;1.00
13375;DHT22;6756;51.354;15.754;2024-02-16T22:48:43;11.90;1.00
13375;DHT22;6756;51.354;15.754;2024-02-16T22:52:44;11.90;1.00
13375;DHT22;6756;51.354;15.754;2024-02-16T22:56:45;11.90;1.00
13375;DHT22;6756;51.354;15.754;2024-02-16T23:00:46;11.90;1.00
13375;DHT22;6756;51.354;15.754;2024-02-16T23:04:47;11.90;1.00
13375;DHT22;6756;51.354;15.754;2024-02-16T23:08:48;11.90;1.00
13375;DHT22;6756;51.354;15.754;2024-02-16T23:12:49;11.90;1.00
13375;DHT22;6756;51.354;15.754;2024-02-16T23:16:50;11.90;1.00
13375;DHT22;6756;51.354;15.754;2024-02-16T23:20:51;11.90;1.00
13375;DHT22;6756;51.354;15.754;2024-02-16T23:24:52;11.90;1.00
13375;DHT22;6756;51.354;15.754;2024-02-16T23:28:52;11.90;1.00
13375;DHT22;6756;51.354;15.754;2024-02-16T23:32:54;11.90;1.00
13375;DHT22;6756;51.354;15.754;2024-02-16T23:36:54;11.90;1.00
13375;DHT22;6756;51.354;15.754;2024-02-16T23:40:56;11.90;1.00
13375;DHT22;6756;51.354;15.754;2024-02-16T23:44:57;11.90;1.00
13375;DHT22;6756;51.354;15.754;2024-02-16T23:48:58;12.00;1.00
13375;DHT22;6756;51.354;15.754;2024-02-16T23:52:59;12.00;1.00
13375;DHT22;6756;51.354;15.754;2024-02-16T23:57:00;12.10;1.00
